Weather at Philadelphia International Airport

Public forecast

Using degrees Fahrenheit for public forecast. Weather courtesy of forecast.io.

Current aviation weather report (METAR) for Philadelphia International Airport

Retrieved 2021/01/23 12:54 UTC (34 minutes ago):

KPHL 231254Z 32013KT 10SM BKN065 M01/M16 A3010 RMK AO2 PK WND 32026/1211 SLP193 T10111156

Aviation forecast (TAF) for Philadelphia International Airport

Retrieved 2021/01/23 12:24 UTC (1 hour ago):

TAF KPHL 231121Z 2312/2418 33012G20KT P6SM BKN060 FM231400 31018G28KT P6SM BKN050 FM231800 31020G30KT P6SM SCT060 FM232200 31014G24KT P6SM FEW100 FM240100 31012KT P6SM SKC